sensor_id;sensor_type;location;lat;lon;timestamp;temperature;humidity
78884;SHT31;68262;51.968;5.672;2023-04-03T00:01:46;8.9;47.7
78884;SHT31;68262;51.968;5.672;2023-04-03T00:04:15;8.9;47.9
78884;SHT31;68262;51.968;5.672;2023-04-03T00:06:44;8.8;48.0
78884;SHT31;68262;51.968;5.672;2023-04-03T00:09:16;8.8;48.0
78884;SHT31;68262;51.968;5.672;2023-04-03T00:11:45;8.8;48.0
78884;SHT31;68262;51.968;5.672;2023-04-03T00:14:16;8.7;48.2
78884;SHT31;68262;51.968;5.672;2023-04-03T00:16:45;8.7;48.1
78884;SHT31;68262;51.968;5.672;2023-04-03T00:19:15;8.6;48.4
78884;SHT31;68262;51.968;5.672;2023-04-03T00:21:44;8.6;48.8
78884;SHT31;68262;51.968;5.672;2023-04-03T00:24:14;8.6;48.3
78884;SHT31;68262;51.968;5.672;2023-04-03T00:26:43;8.5;48.2
78884;SHT31;68262;51.968;5.672;2023-04-03T00:29:13;8.5;48.4
78884;SHT31;68262;51.968;5.672;2023-04-03T00:31:43;8.4;48.5
78884;SHT31;68262;51.968;5.672;2023-04-03T00:34:12;8.4;48.5
78884;SHT31;68262;51.968;5.672;2023-04-03T00:36:42;8.4;48.7
78884;SHT31;68262;51.968;5.672;2023-04-03T00:39:12;8.3;48.5
78884;SHT31;68262;51.968;5.672;2023-04-03T00:41:41;8.3;48.8
78884;SHT31;68262;51.968;5.672;2023-04-03T00:47:18;8.2;48.9
78884;SHT31;68262;51.968;5.672;2023-04-03T00:49:50;8.2;49.0
78884;SHT31;68262;51.968;5.672;2023-04-03T00:52:26;8.2;49.2
78884;SHT31;68262;51.968;5.672;2023-04-03T00:55:00;8.1;49.3
78884;SHT31;68262;51.968;5.672;2023-04-03T00:57:31;8.1;49.3
78884;SHT31;68262;51.968;5.672;2023-04-03T01:00:05;8.1;49.3
78884;SHT31;68262;51.968;5.672;2023-04-03T01:02:36;8.1;49.5
78884;SHT31;68262;51.968;5.672;2023-04-03T01:05:08;8.0;49.7
78884;SHT31;68262;51.968;5.672;2023-04-03T01:07:41;8.0;50.1
78884;SHT31;68262;51.968;5.672;2023-04-03T01:10:14;8.0;49.7
78884;SHT31;68262;51.968;5.672;2023-04-03T01:12:48;8.0;50.0
78884;SHT31;68262;51.968;5.672;2023-04-03T01:15:21;8.0;50.2
78884;SHT31;68262;51.968;5.672;2023-04-03T01:17:53;7.9;49.7
78884;SHT31;68262;51.968;5.672;2023-04-03T01:20:50;7.9;49.9
78884;SHT31;68262;51.968;5.672;2023-04-03T01:23:35;7.9;50.2
78884;SHT31;68262;51.968;5.672;2023-04-03T01:26:08;7.9;50.1
78884;SHT31;68262;51.968;5.672;2023-04-03T01:28:39;7.8;50.0
78884;SHT31;68262;51.968;5.672;2023-04-03T01:31:14;7.8;50.1
78884;SHT31;68262;51.968;5.672;2023-04-03T01:33:46;7.8;50.3
78884;SHT31;68262;51.968;5.672;2023-04-03T01:36:18;7.8;50.4
78884;SHT31;68262;51.968;5.672;2023-04-03T01:38:48;7.7;50.5
78884;SHT31;68262;51.968;5.672;2023-04-03T01:41:18;7.7;50.8
78884;SHT31;68262;51.968;5.672;2023-04-03T01:43:49;7.7;51.1
78884;SHT31;68262;51.968;5.672;2023-04-03T01:46:19;7.7;51.1
78884;SHT31;68262;51.968;5.672;2023-04-03T01:48:49;7.6;51.0
78884;SHT31;68262;51.968;5.672;2023-04-03T01:51:18;7.6;51.3
78884;SHT31;68262;51.968;5.672;2023-04-03T01:53:48;7.6;51.3
78884;SHT31;68262;51.968;5.672;2023-04-03T01:56:18;7.6;51.5
78884;SHT31;68262;51.968;5.672;2023-04-03T01:58:49;7.5;52.2
78884;SHT31;68262;51.968;5.672;2023-04-03T02:01:18;7.5;51.8
78884;SHT31;68262;51.968;5.672;2023-04-03T02:03:48;7.5;52.0
78884;SHT31;68262;51.968;5.672;2023-04-03T02:06:18;7.5;52.0
78884;SHT31;68262;51.968;5.672;2023-04-03T02:08:47;7.5;52.1
78884;SHT31;68262;51.968;5.672;2023-04-03T02:11:17;7.4;52.3
78884;SHT31;68262;51.968;5.672;2023-04-03T02:13:47;7.4;52.2
78884;SHT31;68262;51.968;5.672;2023-04-03T02:16:17;7.4;52.5
78884;SHT31;68262;51.968;5.672;2023-04-03T02:18:46;7.4;52.7
78884;SHT31;68262;51.968;5.672;2023-04-03T02:21:16;7.3;52.7
78884;SHT31;68262;51.968;5.672;2023-04-03T02:23:45;7.3;52.8
78884;SHT31;68262;51.968;5.672;2023-04-03T02:26:16;7.3;52.8
78884;SHT31;68262;51.968;5.672;2023-04-03T02:28:46;7.3;53.2
78884;SHT31;68262;51.968;5.672;2023-04-03T02:31:16;7.2;53.4
78884;SHT31;68262;51.968;5.672;2023-04-03T02:33:46;7.2;53.8
78884;SHT31;68262;51.968;5.672;2023-04-03T02:36:16;7.2;53.8
78884;SHT31;68262;51.968;5.672;2023-04-03T02:38:46;7.2;54.1
78884;SHT31;68262;51.968;5.672;2023-04-03T02:41:16;7.2;53.7
78884;SHT31;68262;51.968;5.672;2023-04-03T02:43:47;7.2;53.8
78884;SHT31;68262;51.968;5.672;2023-04-03T02:46:17;7.2;54.0
78884;SHT31;68262;51.968;5.672;2023-04-03T02:48:46;7.1;54.0
78884;SHT31;68262;51.968;5.672;2023-04-03T02:51:16;7.1;54.0
78884;SHT31;68262;51.968;5.672;2023-04-03T02:53:46;7.1;53.8
78884;SHT31;68262;51.968;5.672;2023-04-03T02:56:15;7.1;54.3
78884;SHT31;68262;51.968;5.672;2023-04-03T02:58:47;7.1;54.4
78884;SHT31;68262;51.968;5.672;2023-04-03T03:01:17;7.0;54.4
78884;SHT31;68262;51.968;5.672;2023-04-03T03:03:47;7.0;54.2
78884;SHT31;68262;51.968;5.672;2023-04-03T03:06:17;7.0;54.4
78884;SHT31;68262;51.968;5.672;2023-04-03T03:08:48;7.0;54.5
78884;SHT31;68262;51.968;5.672;2023-04-03T03:11:18;7.0;54.5
78884;SHT31;68262;51.968;5.672;2023-04-03T03:13:48;6.9;54.3
78884;SHT31;68262;51.968;5.672;2023-04-03T03:16:17;6.9;54.5
78884;SHT31;68262;51.968;5.672;2023-04-03T03:18:47;6.9;54.9
78884;SHT31;68262;51.968;5.672;2023-04-03T03:21:17;6.9;54.6
78884;SHT31;68262;51.968;5.672;2023-04-03T03:23:49;6.8;54.7
78884;SHT31;68262;51.968;5.672;2023-04-03T03:26:18;6.8;54.8
78884;SHT31;68262;51.968;5.672;2023-04-03T03:28:48;6.8;55.0
78884;SHT31;68262;51.968;5.672;2023-04-03T03:31:17;6.8;54.8
78884;SHT31;68262;51.968;5.672;2023-04-03T03:33:47;6.7;55.1
78884;SHT31;68262;51.968;5.672;2023-04-03T03:36:16;6.7;55.2
78884;SHT31;68262;51.968;5.672;2023-04-03T03:38:46;6.7;55.3
78884;SHT31;68262;51.968;5.672;2023-04-03T03:41:15;6.7;55.4
78884;SHT31;68262;51.968;5.672;2023-04-03T03:43:45;6.6;55.4
78884;SHT31;68262;51.968;5.672;2023-04-03T03:46:14;6.6;55.8
78884;SHT31;68262;51.968;5.672;2023-04-03T03:48:44;6.6;56.0
78884;SHT31;68262;51.968;5.672;2023-04-03T03:51:13;6.5;56.1
78884;SHT31;68262;51.968;5.672;2023-04-03T03:53:43;6.5;56.1
78884;SHT31;68262;51.968;5.672;2023-04-03T03:56:13;6.5;56.0
78884;SHT31;68262;51.968;5.672;2023-04-03T03:58:42;6.5;56.4
78884;SHT31;68262;51.968;5.672;2023-04-03T04:01:14;6.4;56.3
78884;SHT31;68262;51.968;5.672;2023-04-03T04:03:44;6.4;56.5
78884;SHT31;68262;51.968;5.672;2023-04-03T04:06:13;6.4;56.6
78884;SHT31;68262;51.968;5.672;2023-04-03T04:08:43;6.4;56.5
78884;SHT31;68262;51.968;5.672;2023-04-03T04:11:13;6.3;56.6
78884;SHT31;68262;51.968;5.672;2023-04-03T04:13:42;6.3;56.8
78884;SHT31;68262;51.968;5.672;2023-04-03T04:16:12;6.3;56.7
78884;SHT31;68262;51.968;5.672;2023-04-03T04:18:41;6.3;56.9
78884;SHT31;68262;51.968;5.672;2023-04-03T04:21:11;6.2;57.1
78884;SHT31;68262;51.968;5.672;2023-04-03T04:23:41;6.2;57.2
78884;SHT31;68262;51.968;5.672;2023-04-03T04:26:10;6.2;57.2
78884;SHT31;68262;51.968;5.672;2023-04-03T04:28:40;6.2;57.2
78884;SHT31;68262;51.968;5.672;2023-04-03T04:31:09;6.2;57.4
78884;SHT31;68262;51.968;5.672;2023-04-03T04:33:39;6.1;57.4
78884;SHT31;68262;51.968;5.672;2023-04-03T04:36:09;6.1;57.4
78884;SHT31;68262;51.968;5.672;2023-04-03T04:38:38;6.1;57.3
78884;SHT31;68262;51.968;5.672;2023-04-03T04:41:08;6.1;57.5
78884;SHT31;68262;51.968;5.672;2023-04-03T04:43:38;6.0;57.6
78884;SHT31;68262;51.968;5.672;2023-04-03T04:46:09;6.0;57.6
78884;SHT31;68262;51.968;5.672;2023-04-03T04:48:39;6.0;57.7
78884;SHT31;68262;51.968;5.672;2023-04-03T04:51:09;5.9;57.7
78884;SHT31;68262;51.968;5.672;2023-04-03T04:53:39;5.9;57.9
78884;SHT31;68262;51.968;5.672;2023-04-03T04:56:09;5.9;58.0
78884;SHT31;68262;51.968;5.672;2023-04-03T04:58:39;5.9;58.0
78884;SHT31;68262;51.968;5.672;2023-04-03T05:01:10;5.8;58.0
78884;SHT31;68262;51.968;5.672;2023-04-03T05:03:41;5.8;58.2
78884;SHT31;68262;51.968;5.672;2023-04-03T05:06:11;5.8;58.2
78884;SHT31;68262;51.968;5.672;2023-04-03T05:08:40;5.8;58.2
78884;SHT31;68262;51.968;5.672;2023-04-03T05:11:10;5.7;58.3
78884;SHT31;68262;51.968;5.672;2023-04-03T05:13:39;5.7;58.5
78884;SHT31;68262;51.968;5.672;2023-04-03T05:16:09;5.7;58.6
78884;SHT31;68262;51.968;5.672;2023-04-03T05:18:38;5.6;58.8
78884;SHT31;68262;51.968;5.672;2023-04-03T05:21:10;5.6;58.8
78884;SHT31;68262;51.968;5.672;2023-04-03T05:23:39;5.6;58.8
78884;SHT31;68262;51.968;5.672;2023-04-03T05:26:09;5.6;58.8
78884;SHT31;68262;51.968;5.672;2023-04-03T05:28:39;5.6;58.9
78884;SHT31;68262;51.968;5.672;2023-04-03T05:31:09;5.5;59.1
78884;SHT31;68262;51.968;5.672;2023-04-03T05:33:38;5.5;59.0
78884;SHT31;68262;51.968;5.672;2023-04-03T05:36:08;5.5;59.0
78884;SHT31;68262;51.968;5.672;2023-04-03T05:38:39;5.5;59.2
78884;SHT31;68262;51.968;5.672;2023-04-03T05:41:09;5.5;59.2
78884;SHT31;68262;51.968;5.672;2023-04-03T05:43:38;5.5;59.2
78884;SHT31;68262;51.968;5.672;2023-04-03T05:46:10;5.4;59.1
78884;SHT31;68262;51.968;5.672;2023-04-03T05:48:40;5.4;59.4
78884;SHT31;68262;51.968;5.672;2023-04-03T05:51:14;5.4;59.2
78884;SHT31;68262;51.968;5.672;2023-04-03T05:53:45;5.4;59.3
78884;SHT31;68262;51.968;5.672;2023-04-03T05:56:15;5.4;59.5
78884;SHT31;68262;51.968;5.672;2023-04-03T05:58:45;5.4;59.4
78884;SHT31;68262;51.968;5.672;2023-04-03T06:01:14;5.4;59.8
78884;SHT31;68262;51.968;5.672;2023-04-03T06:03:44;5.4;59.8
78884;SHT31;68262;51.968;5.672;2023-04-03T06:06:14;5.4;59.6
78884;SHT31;68262;51.968;5.672;2023-04-03T06:08:44;5.4;59.5
78884;SHT31;68262;51.968;5.672;2023-04-03T06:11:13;5.4;59.6
78884;SHT31;68262;51.968;5.672;2023-04-03T06:13:43;5.4;59.7
78884;SHT31;68262;51.968;5.672;2023-04-03T06:16:20;5.4;59.7
78884;SHT31;68262;51.968;5.672;2023-04-03T06:18:50;5.4;59.4
78884;SHT31;68262;51.968;5.672;2023-04-03T06:21:19;5.4;59.6
78884;SHT31;68262;51.968;5.672;2023-04-03T06:23:48;5.4;59.4
78884;SHT31;68262;51.968;5.672;2023-04-03T06:26:19;5.4;59.5
78884;SHT31;68262;51.968;5.672;2023-04-03T06:28:48;5.4;59.5
78884;SHT31;68262;51.968;5.672;2023-04-03T06:31:18;5.4;59.4
78884;SHT31;68262;51.968;5.672;2023-04-03T06:33:48;5.4;59.5
78884;SHT31;68262;51.968;5.672;2023-04-03T06:36:18;5.4;59.7
78884;SHT31;68262;51.968;5.672;2023-04-03T06:38:49;5.4;59.6
78884;SHT31;68262;51.968;5.672;2023-04-03T06:41:19;5.5;59.7
78884;SHT31;68262;51.968;5.672;2023-04-03T06:43:48;5.5;59.7
78884;SHT31;68262;51.968;5.672;2023-04-03T06:46:20;5.5;60.0
78884;SHT31;68262;51.968;5.672;2023-04-03T06:48:50;5.5;60.0
78884;SHT31;68262;51.968;5.672;2023-04-03T06:51:21;5.6;59.5
78884;SHT31;68262;51.968;5.672;2023-04-03T06:53:53;5.6;59.6
78884;SHT31;68262;51.968;5.672;2023-04-03T06:56:24;5.7;59.1
78884;SHT31;68262;51.968;5.672;2023-04-03T06:58:55;5.7;58.9
78884;SHT31;68262;51.968;5.672;2023-04-03T07:01:27;5.7;59.3
78884;SHT31;68262;51.968;5.672;2023-04-03T07:03:57;5.8;59.3
78884;SHT31;68262;51.968;5.672;2023-04-03T07:06:27;5.8;59.4
78884;SHT31;68262;51.968;5.672;2023-04-03T07:08:58;5.9;59.7
78884;SHT31;68262;51.968;5.672;2023-04-03T07:11:27;5.9;58.6
78884;SHT31;68262;51.968;5.672;2023-04-03T07:13:59;6.0;59.3
78884;SHT31;68262;51.968;5.672;2023-04-03T07:16:31;6.1;58.3
78884;SHT31;68262;51.968;5.672;2023-04-03T07:19:00;6.1;58.3
78884;SHT31;68262;51.968;5.672;2023-04-03T07:21:30;6.2;58.8
78884;SHT31;68262;51.968;5.672;2023-04-03T07:24:00;6.3;57.9
78884;SHT31;68262;51.968;5.672;2023-04-03T07:26:29;6.3;57.2
78884;SHT31;68262;51.968;5.672;2023-04-03T07:28:59;6.4;57.2
78884;SHT31;68262;51.968;5.672;2023-04-03T07:31:29;6.5;56.9
78884;SHT31;68262;51.968;5.672;2023-04-03T07:33:59;6.6;57.0
78884;SHT31;68262;51.968;5.672;2023-04-03T07:36:30;6.6;57.5
78884;SHT31;68262;51.968;5.672;2023-04-03T07:39:00;6.7;56.4
78884;SHT31;68262;51.968;5.672;2023-04-03T07:41:30;6.8;55.7
78884;SHT31;68262;51.968;5.672;2023-04-03T07:44:00;6.9;54.8
78884;SHT31;68262;51.968;5.672;2023-04-03T07:46:30;6.9;54.8
78884;SHT31;68262;51.968;5.672;2023-04-03T07:48:59;7.0;53.3
78884;SHT31;68262;51.968;5.672;2023-04-03T07:51:31;7.1;53.0
78884;SHT31;68262;51.968;5.672;2023-04-03T07:54:00;7.2;52.4
78884;SHT31;68262;51.968;5.672;2023-04-03T07:56:30;7.2;52.0
78884;SHT31;68262;51.968;5.672;2023-04-03T07:58:59;7.3;51.2
78884;SHT31;68262;51.968;5.672;2023-04-03T08:01:29;7.3;51.2
78884;SHT31;68262;51.968;5.672;2023-04-03T08:03:59;7.4;50.4
78884;SHT31;68262;51.968;5.672;2023-04-03T08:06:30;7.4;51.3
78884;SHT31;68262;51.968;5.672;2023-04-03T08:09:03;7.5;50.3
78884;SHT31;68262;51.968;5.672;2023-04-03T08:11:33;7.6;49.3
78884;SHT31;68262;51.968;5.672;2023-04-03T08:14:03;7.7;48.6
78884;SHT31;68262;51.968;5.672;2023-04-03T08:16:33;7.7;48.3
78884;SHT31;68262;51.968;5.672;2023-04-03T08:19:05;7.9;48.4
78884;SHT31;68262;51.968;5.672;2023-04-03T08:21:35;8.2;45.7
78884;SHT31;68262;51.968;5.672;2023-04-03T08:24:06;8.6;44.7
78884;SHT31;68262;51.968;5.672;2023-04-03T08:26:37;9.1;45.3
78884;SHT31;68262;51.968;5.672;2023-04-03T08:29:08;9.6;42.9
78884;SHT31;68262;51.968;5.672;2023-04-03T08:31:38;10.1;41.6
78884;SHT31;68262;51.968;5.672;2023-04-03T08:34:07;10.5;39.7
78884;SHT31;68262;51.968;5.672;2023-04-03T08:36:38;10.8;37.1
78884;SHT31;68262;51.968;5.672;2023-04-03T08:39:09;11.0;36.3
78884;SHT31;68262;51.968;5.672;2023-04-03T08:41:39;11.1;36.2
78884;SHT31;68262;51.968;5.672;2023-04-03T08:44:15;11.3;34.8
78884;SHT31;68262;51.968;5.672;2023-04-03T08:47:01;11.4;32.1
78884;SHT31;68262;51.968;5.672;2023-04-03T08:49:33;11.6;32.0
78884;SHT31;68262;51.968;5.672;2023-04-03T08:52:10;11.8;30.5
78884;SHT31;68262;51.968;5.672;2023-04-03T08:54:51;12.1;29.9
78884;SHT31;68262;51.968;5.672;2023-04-03T08:57:27;12.4;29.8
78884;SHT31;68262;51.968;5.672;2023-04-03T09:00:01;12.7;30.2
78884;SHT31;68262;51.968;5.672;2023-04-03T09:02:36;12.9;31.2
78884;SHT31;68262;51.968;5.672;2023-04-03T09:05:13;13.1;27.6
78884;SHT31;68262;51.968;5.672;2023-04-03T09:07:46;13.3;28.6
78884;SHT31;68262;51.968;5.672;2023-04-03T09:10:23;13.4;27.9
78884;SHT31;68262;51.968;5.672;2023-04-03T09:13:00;13.6;25.4
78884;SHT31;68262;51.968;5.672;2023-04-03T09:15:30;13.6;23.2
78884;SHT31;68262;51.968;5.672;2023-04-03T09:18:06;13.6;24.4
78884;SHT31;68262;51.968;5.672;2023-04-03T09:20:45;13.6;24.6
78884;SHT31;68262;51.968;5.672;2023-04-03T09:23:20;13.6;25.6
78884;SHT31;68262;51.968;5.672;2023-04-03T09:25:57;13.6;25.3
78884;SHT31;68262;51.968;5.672;2023-04-03T09:28:32;13.6;25.1
78884;SHT31;68262;51.968;5.672;2023-04-03T09:31:14;13.6;24.5
78884;SHT31;68262;51.968;5.672;2023-04-03T09:33:46;13.6;24.8
78884;SHT31;68262;51.968;5.672;2023-04-03T09:36:43;13.6;23.2
78884;SHT31;68262;51.968;5.672;2023-04-03T09:39:18;13.6;23.6
78884;SHT31;68262;51.968;5.672;2023-04-03T09:41:59;13.7;23.9
78884;SHT31;68262;51.968;5.672;2023-04-03T09:44:31;13.7;23.8
78884;SHT31;68262;51.968;5.672;2023-04-03T09:47:21;13.8;23.9
78884;SHT31;68262;51.968;5.672;2023-04-03T09:50:15;14.0;22.7
78884;SHT31;68262;51.968;5.672;2023-04-03T09:52:46;14.2;23.1
78884;SHT31;68262;51.968;5.672;2023-04-03T09:55:18;14.3;24.4
78884;SHT31;68262;51.968;5.672;2023-04-03T09:57:49;14.4;22.6
78884;SHT31;68262;51.968;5.672;2023-04-03T10:00:25;14.5;23.5
78884;SHT31;68262;51.968;5.672;2023-04-03T10:02:57;14.6;22.1
78884;SHT31;68262;51.968;5.672;2023-04-03T10:05:32;14.6;23.6
78884;SHT31;68262;51.968;5.672;2023-04-03T10:08:11;14.7;23.3
78884;SHT31;68262;51.968;5.672;2023-04-03T10:10:46;14.8;24.0
78884;SHT31;68262;51.968;5.672;2023-04-03T10:13:18;15.0;21.2
78884;SHT31;68262;51.968;5.672;2023-04-03T10:15:50;15.1;22.3
78884;SHT31;68262;51.968;5.672;2023-04-03T10:18:30;15.1;20.9
78884;SHT31;68262;51.968;5.672;2023-04-03T10:21:05;15.2;23.8
78884;SHT31;68262;51.968;5.672;2023-04-03T10:23:43;15.3;21.9
78884;SHT31;68262;51.968;5.672;2023-04-03T10:26:24;15.3;21.8
78884;SHT31;68262;51.968;5.672;2023-04-03T10:29:06;15.4;22.6
78884;SHT31;68262;51.968;5.672;2023-04-03T10:31:46;15.3;21.9
78884;SHT31;68262;51.968;5.672;2023-04-03T10:34:23;15.3;22.2
78884;SHT31;68262;51.968;5.672;2023-04-03T10:36:59;15.2;22.2
78884;SHT31;68262;51.968;5.672;2023-04-03T10:39:39;15.2;21.6
78884;SHT31;68262;51.968;5.672;2023-04-03T10:42:18;15.1;22.4
78884;SHT31;68262;51.968;5.672;2023-04-03T10:45:08;15.1;21.7
78884;SHT31;68262;51.968;5.672;2023-04-03T10:47:51;15.1;24.7
78884;SHT31;68262;51.968;5.672;2023-04-03T10:50:29;15.2;24.6
78884;SHT31;68262;51.968;5.672;2023-04-03T10:53:04;15.4;23.0
78884;SHT31;68262;51.968;5.672;2023-04-03T10:55:43;15.6;24.3
78884;SHT31;68262;51.968;5.672;2023-04-03T10:58:24;15.6;25.0
78884;SHT31;68262;51.968;5.672;2023-04-03T11:01:00;15.7;23.5
78884;SHT31;68262;51.968;5.672;2023-04-03T11:03:36;15.7;23.3
78884;SHT31;68262;51.968;5.672;2023-04-03T11:06:11;15.8;23.2
78884;SHT31;68262;51.968;5.672;2023-04-03T11:08:48;15.9;24.9
78884;SHT31;68262;51.968;5.672;2023-04-03T11:11:26;16.1;24.0
78884;SHT31;68262;51.968;5.672;2023-04-03T11:14:02;16.2;23.2
78884;SHT31;68262;51.968;5.672;2023-04-03T11:16:37;16.2;24.7
78884;SHT31;68262;51.968;5.672;2023-04-03T11:19:16;16.4;23.9
78884;SHT31;68262;51.968;5.672;2023-04-03T11:21:54;16.6;22.9
78884;SHT31;68262;51.968;5.672;2023-04-03T11:24:29;16.8;23.1
78884;SHT31;68262;51.968;5.672;2023-04-03T11:27:02;16.9;22.3
78884;SHT31;68262;51.968;5.672;2023-04-03T11:29:36;17.0;21.9
78884;SHT31;68262;51.968;5.672;2023-04-03T11:32:27;17.1;22.4
78884;SHT31;68262;51.968;5.672;2023-04-03T11:35:02;17.3;22.9
78884;SHT31;68262;51.968;5.672;2023-04-03T11:37:38;17.5;24.8
78884;SHT31;68262;51.968;5.672;2023-04-03T11:40:24;17.9;23.0
78884;SHT31;68262;51.968;5.672;2023-04-03T11:43:02;18.3;21.6
78884;SHT31;68262;51.968;5.672;2023-04-03T11:45:34;18.6;21.0
78884;SHT31;68262;51.968;5.672;2023-04-03T11:48:07;18.7;21.3
78884;SHT31;68262;51.968;5.672;2023-04-03T11:50:46;18.9;19.8
78884;SHT31;68262;51.968;5.672;2023-04-03T11:53:36;19.0;20.5
78884;SHT31;68262;51.968;5.672;2023-04-03T11:56:29;19.1;20.9
78884;SHT31;68262;51.968;5.672;2023-04-03T12:00:55;19.3;20.2
78884;SHT31;68262;51.968;5.672;2023-04-03T12:03:33;19.5;19.5
78884;SHT31;68262;51.968;5.672;2023-04-03T12:11:30;19.9;18.1
78884;SHT31;68262;51.968;5.672;2023-04-03T12:14:16;20.0;20.0
78884;SHT31;68262;51.968;5.672;2023-04-03T12:16:47;20.1;18.7
78884;SHT31;68262;51.968;5.672;2023-04-03T12:19:38;20.2;18.1
78884;SHT31;68262;51.968;5.672;2023-04-03T12:22:13;20.2;20.3
78884;SHT31;68262;51.968;5.672;2023-04-03T12:24:44;20.2;19.4
78884;SHT31;68262;51.968;5.672;2023-04-03T12:27:34;20.3;20.5
78884;SHT31;68262;51.968;5.672;2023-04-03T12:30:15;20.5;20.4
78884;SHT31;68262;51.968;5.672;2023-04-03T12:33:17;20.8;19.7
78884;SHT31;68262;51.968;5.672;2023-04-03T12:36:02;21.3;18.3
78884;SHT31;68262;51.968;5.672;2023-04-03T12:39:00;21.5;18.7
78884;SHT31;68262;51.968;5.672;2023-04-03T12:41:36;21.7;20.3
78884;SHT31;68262;51.968;5.672;2023-04-03T12:44:20;21.8;18.8
78884;SHT31;68262;51.968;5.672;2023-04-03T12:46:54;22.0;18.6
78884;SHT31;68262;51.968;5.672;2023-04-03T12:49:33;22.1;17.4
78884;SHT31;68262;51.968;5.672;2023-04-03T12:52:12;22.2;17.3
78884;SHT31;68262;51.968;5.672;2023-04-03T12:54:41;22.2;18.9
78884;SHT31;68262;51.968;5.672;2023-04-03T12:57:16;22.3;18.5
78884;SHT31;68262;51.968;5.672;2023-04-03T12:59:47;22.4;18.6
78884;SHT31;68262;51.968;5.672;2023-04-03T13:02:23;22.5;18.5
78884;SHT31;68262;51.968;5.672;2023-04-03T13:04:55;22.7;18.4
78884;SHT31;68262;51.968;5.672;2023-04-03T13:07:30;22.7;18.9
78884;SHT31;68262;51.968;5.672;2023-04-03T13:10:15;22.8;18.9
78884;SHT31;68262;51.968;5.672;2023-04-03T13:12:52;22.9;17.2
78884;SHT31;68262;51.968;5.672;2023-04-03T13:15:24;23.0;19.1
78884;SHT31;68262;51.968;5.672;2023-04-03T13:17:54;23.0;18.8
78884;SHT31;68262;51.968;5.672;2023-04-03T13:20:27;23.1;17.9
78884;SHT31;68262;51.968;5.672;2023-04-03T13:23:01;23.2;19.2
78884;SHT31;68262;51.968;5.672;2023-04-03T13:25:34;23.4;20.1
78884;SHT31;68262;51.968;5.672;2023-04-03T13:28:06;23.7;18.0
78884;SHT31;68262;51.968;5.672;2023-04-03T13:30:40;24.0;17.5
78884;SHT31;68262;51.968;5.672;2023-04-03T13:33:23;24.2;16.0
78884;SHT31;68262;51.968;5.672;2023-04-03T13:35:59;24.3;16.9
78884;SHT31;68262;51.968;5.672;2023-04-03T13:38:31;24.3;15.6
78884;SHT31;68262;51.968;5.672;2023-04-03T13:41:20;24.2;16.6
78884;SHT31;68262;51.968;5.672;2023-04-03T13:43:39;24.2;16.4
78884;SHT31;68262;51.968;5.672;2023-04-03T13:46:25;24.2;15.8
78884;SHT31;68262;51.968;5.672;2023-04-03T13:48:56;24.1;18.3
78884;SHT31;68262;51.968;5.672;2023-04-03T13:51:27;24.0;16.1
78884;SHT31;68262;51.968;5.672;2023-04-03T13:54:00;24.0;18.9
78884;SHT31;68262;51.968;5.672;2023-04-03T13:56:34;24.0;17.0
78884;SHT31;68262;51.968;5.672;2023-04-03T13:59:22;24.1;17.4
78884;SHT31;68262;51.968;5.672;2023-04-03T14:01:55;24.2;16.9
78884;SHT31;68262;51.968;5.672;2023-04-03T14:04:27;24.2;15.9
78884;SHT31;68262;51.968;5.672;2023-04-03T14:06:58;24.2;17.4
78884;SHT31;68262;51.968;5.672;2023-04-03T14:09:28;24.2;17.6
78884;SHT31;68262;51.968;5.672;2023-04-03T14:12:05;24.2;16.5
78884;SHT31;68262;51.968;5.672;2023-04-03T14:14:38;24.3;16.9
78884;SHT31;68262;51.968;5.672;2023-04-03T14:17:15;24.2;16.6
78884;SHT31;68262;51.968;5.672;2023-04-03T14:19:45;24.2;17.2
78884;SHT31;68262;51.968;5.672;2023-04-03T14:22:17;24.0;17.8
78884;SHT31;68262;51.968;5.672;2023-04-03T14:24:49;23.9;16.2
78884;SHT31;68262;51.968;5.672;2023-04-03T14:27:22;23.7;17.5
78884;SHT31;68262;51.968;5.672;2023-04-03T14:29:54;23.6;20.3
78884;SHT31;68262;51.968;5.672;2023-04-03T14:32:25;23.6;18.4
78884;SHT31;68262;51.968;5.672;2023-04-03T14:34:56;23.7;17.0
78884;SHT31;68262;51.968;5.672;2023-04-03T14:37:28;23.7;17.2
78884;SHT31;68262;51.968;5.672;2023-04-03T14:40:00;23.5;16.8
78884;SHT31;68262;51.968;5.672;2023-04-03T14:42:33;23.3;17.0
78884;SHT31;68262;51.968;5.672;2023-04-03T14:45:05;22.9;17.6
78884;SHT31;68262;51.968;5.672;2023-04-03T14:47:40;22.6;19.0
78884;SHT31;68262;51.968;5.672;2023-04-03T14:50:15;22.4;19.1
78884;SHT31;68262;51.968;5.672;2023-04-03T14:52:45;22.3;18.0
78884;SHT31;68262;51.968;5.672;2023-04-03T14:55:16;22.2;18.7
78884;SHT31;68262;51.968;5.672;2023-04-03T14:57:48;22.1;20.9
78884;SHT31;68262;51.968;5.672;2023-04-03T15:00:20;22.0;19.7
78884;SHT31;68262;51.968;5.672;2023-04-03T15:02:50;22.0;19.1
78884;SHT31;68262;51.968;5.672;2023-04-03T15:05:19;22.0;19.2
78884;SHT31;68262;51.968;5.672;2023-04-03T15:07:52;22.0;20.6
78884;SHT31;68262;51.968;5.672;2023-04-03T15:10:25;22.1;20.3
78884;SHT31;68262;51.968;5.672;2023-04-03T15:12:58;22.1;19.2
78884;SHT31;68262;51.968;5.672;2023-04-03T15:15:29;22.1;19.6
78884;SHT31;68262;51.968;5.672;2023-04-03T15:17:59;22.1;19.2
78884;SHT31;68262;51.968;5.672;2023-04-03T15:20:29;22.0;18.8
78884;SHT31;68262;51.968;5.672;2023-04-03T15:23:01;21.9;19.2
78884;SHT31;68262;51.968;5.672;2023-04-03T15:25:32;21.7;20.4
78884;SHT31;68262;51.968;5.672;2023-04-03T15:28:02;21.5;20.0
78884;SHT31;68262;51.968;5.672;2023-04-03T15:30:39;21.4;21.6
78884;SHT31;68262;51.968;5.672;2023-04-03T15:33:10;21.3;21.3
78884;SHT31;68262;51.968;5.672;2023-04-03T15:35:39;21.3;21.0
78884;SHT31;68262;51.968;5.672;2023-04-03T15:38:10;21.2;20.8
78884;SHT31;68262;51.968;5.672;2023-04-03T15:40:39;21.2;21.7
78884;SHT31;68262;51.968;5.672;2023-04-03T15:43:10;21.2;21.4
78884;SHT31;68262;51.968;5.672;2023-04-03T15:45:40;21.2;20.7
78884;SHT31;68262;51.968;5.672;2023-04-03T15:48:11;21.2;20.6
78884;SHT31;68262;51.968;5.672;2023-04-03T15:50:41;21.2;21.1
78884;SHT31;68262;51.968;5.672;2023-04-03T15:53:11;21.1;20.7
78884;SHT31;68262;51.968;5.672;2023-04-03T15:55:40;21.1;20.5
78884;SHT31;68262;51.968;5.672;2023-04-03T15:58:12;21.1;21.0
78884;SHT31;68262;51.968;5.672;2023-04-03T16:00:44;21.0;21.1
78884;SHT31;68262;51.968;5.672;2023-04-03T16:03:18;21.0;21.8
78884;SHT31;68262;51.968;5.672;2023-04-03T16:05:49;21.0;21.4
78884;SHT31;68262;51.968;5.672;2023-04-03T16:08:19;20.9;21.4
78884;SHT31;68262;51.968;5.672;2023-04-03T16:10:49;20.8;22.3
78884;SHT31;68262;51.968;5.672;2023-04-03T16:13:18;20.8;20.2
78884;SHT31;68262;51.968;5.672;2023-04-03T16:15:48;20.6;20.9
78884;SHT31;68262;51.968;5.672;2023-04-03T16:18:18;20.3;21.5
78884;SHT31;68262;51.968;5.672;2023-04-03T16:20:48;20.0;22.3
78884;SHT31;68262;51.968;5.672;2023-04-03T16:23:18;19.8;22.3
78884;SHT31;68262;51.968;5.672;2023-04-03T16:25:48;19.6;22.1
78884;SHT31;68262;51.968;5.672;2023-04-03T16:28:18;19.4;22.0
78884;SHT31;68262;51.968;5.672;2023-04-03T16:30:48;19.3;23.2
78884;SHT31;68262;51.968;5.672;2023-04-03T16:33:18;19.2;23.7
78884;SHT31;68262;51.968;5.672;2023-04-03T16:35:49;19.1;23.4
78884;SHT31;68262;51.968;5.672;2023-04-03T16:38:19;19.0;23.8
78884;SHT31;68262;51.968;5.672;2023-04-03T16:40:49;18.9;24.8
78884;SHT31;68262;51.968;5.672;2023-04-03T16:43:19;18.9;23.7
78884;SHT31;68262;51.968;5.672;2023-04-03T16:45:49;18.8;22.9
78884;SHT31;68262;51.968;5.672;2023-04-03T16:48:18;18.7;24.1
78884;SHT31;68262;51.968;5.672;2023-04-03T16:50:49;18.6;23.9
78884;SHT31;68262;51.968;5.672;2023-04-03T16:53:20;18.5;24.4
78884;SHT31;68262;51.968;5.672;2023-04-03T16:55:50;18.4;24.6